DLH333 EGLL-EDDH
Flight info
| Callsign | DLH333 |
|---|---|
| Flight time | N/A |
| Altitude | 41000 |
| Route | BPK Q295 SOMVA DCT MAVAS DCT GASTU DCT OSTOR T904 RIBSO RIBSO3S |
| Aircraft | A35K/H-SDE2E3GHIJ3J4J5LM1ORWXY/LB1D1 |
Departure
| Time | 2026-05-06 12:35 |
|---|---|
| Airport | London Heathrow Airport (EGLL) |
Arrival
| Time | N/A |
|---|---|
| Airport | Hamburg Helmut Schmidt Airport (EDDH) |
| Time | Latitude | Longitude | Altitude | Speed | Heading |
|---|---|---|---|---|---|
| 2026-05-06 12:04 | 51.47264 | -0.46316 | 93 ft | 0 kts | 55° |
| 2026-05-06 12:19 | 51.47258 | -0.46331 | 93 ft | 2 kts | 55° |
| 2026-05-06 12:19 | 51.47248 | -0.46352 | 94 ft | 2 kts | 55° |
| 2026-05-06 12:20 | 51.47239 | -0.46374 | 93 ft | 2 kts | 55° |
| 2026-05-06 12:20 | 51.47228 | -0.46394 | 94 ft | 2 kts | 15° |
| 2026-05-06 12:20 | 51.47212 | -0.46392 | 92 ft | 2 kts | 339° |
| 2026-05-06 12:20 | 51.47200 | -0.46383 | 92 ft | 1 kts | 331° |
| 2026-05-06 12:21 | 51.47198 | -0.46382 | 92 ft | 0 kts | 330° |
| 2026-05-06 12:25 | 51.47210 | -0.46397 | 97 ft | 4 kts | 320° |
| 2026-05-06 12:26 | 51.47231 | -0.46452 | 97 ft | 7 kts | 290° |
| 2026-05-06 12:26 | 51.47240 | -0.46547 | 93 ft | 10 kts | 270° |
| 2026-05-06 12:26 | 51.47240 | -0.46691 | 95 ft | 16 kts | 269° |
| 2026-05-06 12:26 | 51.47208 | -0.46856 | 96 ft | 16 kts | 207° |
| 2026-05-06 12:27 | 51.47097 | -0.46867 | 92 ft | 18 kts | 179° |
| 2026-05-06 12:27 | 51.46981 | -0.46865 | 95 ft | 15 kts | 179° |
| 2026-05-06 12:27 | 51.46879 | -0.46863 | 97 ft | 14 kts | 179° |
| 2026-05-06 12:27 | 51.46842 | -0.46862 | 97 ft | 1 kts | 179° |
| 2026-05-06 12:28 | 51.46835 | -0.46862 | 97 ft | 0 kts | 179° |
| 2026-05-06 12:28 | 51.46828 | -0.46862 | 97 ft | 2 kts | 179° |
| 2026-05-06 12:28 | 51.46811 | -0.46862 | 98 ft | 3 kts | 179° |
| 2026-05-06 12:29 | 51.46787 | -0.46863 | 99 ft | 3 kts | 186° |
| 2026-05-06 12:29 | 51.46767 | -0.46879 | 100 ft | 4 kts | 216° |
| 2026-05-06 12:29 | 51.46751 | -0.46929 | 102 ft | 8 kts | 253° |
| 2026-05-06 12:29 | 51.46747 | -0.47051 | 98 ft | 14 kts | 270° |
| 2026-05-06 12:30 | 51.46746 | -0.47209 | 98 ft | 11 kts | 269° |
| 2026-05-06 12:30 | 51.46745 | -0.47361 | 96 ft | 16 kts | 270° |
| 2026-05-06 12:30 | 51.46745 | -0.47569 | 94 ft | 21 kts | 270° |
| 2026-05-06 12:30 | 51.46745 | -0.47763 | 96 ft | 16 kts | 269° |
| 2026-05-06 12:31 | 51.46744 | -0.47953 | 97 ft | 18 kts | 269° |
| 2026-05-06 12:31 | 51.46743 | -0.48166 | 99 ft | 20 kts | 269° |
| 2026-05-06 12:31 | 51.46742 | -0.48371 | 100 ft | 19 kts | 269° |
| 2026-05-06 12:31 | 51.46739 | -0.48596 | 98 ft | 14 kts | 268° |
| 2026-05-06 12:32 | 51.46738 | -0.48642 | 98 ft | 5 kts | 267° |
| 2026-05-06 12:32 | 51.46723 | -0.48703 | 103 ft | 7 kts | 227° |
| 2026-05-06 12:32 | 51.46673 | -0.48741 | 102 ft | 10 kts | 194° |
| 2026-05-06 12:32 | 51.46586 | -0.48773 | 99 ft | 16 kts | 192° |
| 2026-05-06 12:33 | 51.46496 | -0.48733 | 102 ft | 12 kts | 134° |
| 2026-05-06 12:33 | 51.46479 | -0.48635 | 100 ft | 0 kts | 90° |
| 2026-05-06 12:34 | 51.46479 | -0.48634 | 100 ft | 0 kts | 91° |
| 2026-05-06 12:34 | 51.46479 | -0.48402 | 100 ft | 61 kts | 90° |
| 2026-05-06 12:34 | 51.46483 | -0.47278 | 98 ft | 138 kts | 89° |
| 2026-05-06 12:34 | 51.46468 | -0.45474 | 458 ft | 172 kts | 89° |
| 2026-05-06 12:35 | 51.46441 | -0.43586 | 1395 ft | 170 kts | 80° |
| 2026-05-06 12:35 | 51.46871 | -0.41743 | 1872 ft | 190 kts | 51° |
| 2026-05-06 12:35 | 51.47761 | -0.40035 | 2432 ft | 209 kts | 45° |
| 2026-05-06 12:35 | 51.48784 | -0.38221 | 3047 ft | 230 kts | 45° |
| 2026-05-06 12:36 | 51.49875 | -0.36236 | 3864 ft | 243 kts | 46° |
| 2026-05-06 12:36 | 51.50989 | -0.34149 | 4793 ft | 250 kts | 48° |
| 2026-05-06 12:36 | 51.51899 | -0.31725 | 5561 ft | 259 kts | 64° |
| 2026-05-06 12:36 | 51.52542 | -0.28970 | 5939 ft | 266 kts | 67° |
| 2026-05-06 12:37 | 51.53135 | -0.26153 | 5997 ft | 266 kts | 68° |
| 2026-05-06 12:37 | 51.53794 | -0.23375 | 5992 ft | 265 kts | 59° |
| 2026-05-06 12:37 | 51.54924 | -0.21103 | 5992 ft | 259 kts | 35° |
| 2026-05-06 12:37 | 51.56474 | -0.19701 | 5993 ft | 256 kts | 21° |
| 2026-05-06 12:38 | 51.58089 | -0.18591 | 6034 ft | 255 kts | 21° |
| 2026-05-06 12:38 | 51.59762 | -0.17645 | 6041 ft | 255 kts | 15° |
| 2026-05-06 12:38 | 51.61466 | -0.16859 | 6041 ft | 254 kts | 14° |
| 2026-05-06 12:38 | 51.63168 | -0.16095 | 6278 ft | 255 kts | 14° |
| 2026-05-06 12:39 | 51.64879 | -0.15319 | 7010 ft | 259 kts | 14° |
| 2026-05-06 12:39 | 51.66658 | -0.14509 | 8157 ft | 262 kts | 14° |
| 2026-05-06 12:39 | 51.68408 | -0.13708 | 9168 ft | 269 kts | 13° |
| 2026-05-06 12:39 | 51.70227 | -0.12868 | 10225 ft | 275 kts | 13° |
| 2026-05-06 12:40 | 51.72150 | -0.11926 | 10840 ft | 299 kts | 18° |
| 2026-05-06 12:40 | 51.74021 | -0.10113 | 11194 ft | 332 kts | 41° |
| 2026-05-06 12:40 | 51.75334 | -0.06957 | 11683 ft | 358 kts | 66° |
| 2026-05-06 12:40 | 51.76034 | -0.03032 | 12565 ft | 369 kts | 78° |
| 2026-05-06 12:41 | 51.76412 | 0.01110 | 13426 ft | 378 kts | 82° |
| 2026-05-06 12:41 | 51.76659 | 0.05382 | 14256 ft | 386 kts | 84° |
| 2026-05-06 12:41 | 51.76880 | 0.09712 | 15190 ft | 389 kts | 84° |
| 2026-05-06 12:41 | 51.77131 | 0.14108 | 16004 ft | 397 kts | 83° |
| 2026-05-06 12:42 | 51.77426 | 0.18562 | 16867 ft | 401 kts | 83° |
| 2026-05-06 12:42 | 51.77761 | 0.23052 | 17815 ft | 405 kts | 82° |
| 2026-05-06 12:42 | 51.78122 | 0.27609 | 18624 ft | 412 kts | 82° |
| 2026-05-06 12:42 | 51.78497 | 0.32219 | 19508 ft | 415 kts | 82° |
| 2026-05-06 12:43 | 51.78877 | 0.36881 | 20292 ft | 423 kts | 82° |
| 2026-05-06 12:43 | 51.79260 | 0.41615 | 21164 ft | 426 kts | 82° |
| 2026-05-06 12:43 | 51.79642 | 0.46380 | 22013 ft | 431 kts | 82° |
| 2026-05-06 12:43 | 51.80026 | 0.51225 | 22773 ft | 437 kts | 83° |
| 2026-05-06 12:44 | 51.80411 | 0.56113 | 23655 ft | 441 kts | 83° |
| 2026-05-06 12:44 | 51.80810 | 0.61068 | 24259 ft | 447 kts | 81° |
| 2026-05-06 12:44 | 51.81519 | 0.65968 | 24962 ft | 450 kts | 71° |
| 2026-05-06 12:44 | 51.82573 | 0.70760 | 25606 ft | 456 kts | 69° |
| 2026-05-06 12:45 | 51.83741 | 0.75541 | 26330 ft | 459 kts | 67° |
| 2026-05-06 12:45 | 51.84972 | 0.80329 | 26975 ft | 464 kts | 67° |
| 2026-05-06 12:45 | 51.87519 | 0.90006 | 28341 ft | 472 kts | 66° |
| 2026-05-06 12:46 | 51.88802 | 0.94909 | 29042 ft | 475 kts | 67° |
| 2026-05-06 12:46 | 51.90088 | 0.99873 | 29589 ft | 481 kts | 68° |
| 2026-05-06 12:46 | 51.91376 | 1.04891 | 30201 ft | 484 kts | 68° |
| 2026-05-06 12:46 | 51.92665 | 1.09936 | 30712 ft | 487 kts | 68° |
| 2026-05-06 12:47 | 51.93958 | 1.15015 | 31222 ft | 490 kts | 68° |
| 2026-05-06 12:47 | 51.95258 | 1.20133 | 31687 ft | 494 kts | 68° |
| 2026-05-06 12:47 | 51.96567 | 1.25297 | 32179 ft | 496 kts | 68° |
| 2026-05-06 12:47 | 51.97883 | 1.30499 | 32603 ft | 499 kts | 68° |
| 2026-05-06 12:48 | 51.99197 | 1.35703 | 33304 ft | 497 kts | 67° |
| 2026-05-06 12:48 | 52.00486 | 1.40818 | 33941 ft | 495 kts | 67° |
| 2026-05-06 12:48 | 52.01800 | 1.46045 | 34469 ft | 493 kts | 68° |
| 2026-05-06 12:48 | 52.03096 | 1.51210 | 34836 ft | 495 kts | 68° |
| 2026-05-06 12:49 | 52.04395 | 1.56401 | 35263 ft | 496 kts | 68° |
| 2026-05-06 12:49 | 52.05693 | 1.61604 | 35640 ft | 497 kts | 68° |
| 2026-05-06 12:49 | 52.06989 | 1.66806 | 36020 ft | 498 kts | 68° |
| 2026-05-06 12:49 | 52.08291 | 1.72045 | 36391 ft | 499 kts | 68° |
| 2026-05-06 12:50 | 52.09588 | 1.77279 | 36745 ft | 500 kts | 68° |
| 2026-05-06 12:50 | 52.10888 | 1.82536 | 37105 ft | 501 kts | 68° |
| 2026-05-06 12:50 | 52.12171 | 1.87735 | 37457 ft | 502 kts | 68° |
| 2026-05-06 12:50 | 52.13473 | 1.93028 | 37798 ft | 503 kts | 68° |
| 2026-05-06 12:51 | 52.14771 | 1.98312 | 38124 ft | 504 kts | 69° |
| 2026-05-06 12:51 | 52.16070 | 2.03618 | 38440 ft | 505 kts | 69° |
| 2026-05-06 12:51 | 52.17369 | 2.08933 | 38748 ft | 505 kts | 69° |
| 2026-05-06 12:51 | 52.18667 | 2.14257 | 39004 ft | 506 kts | 69° |
| 2026-05-06 12:52 | 52.19963 | 2.19588 | 39256 ft | 506 kts | 69° |
| 2026-05-06 12:52 | 52.21258 | 2.24925 | 39500 ft | 506 kts | 69° |
| 2026-05-06 12:52 | 52.22551 | 2.30271 | 39733 ft | 507 kts | 69° |
| 2026-05-06 12:52 | 52.23843 | 2.35622 | 39982 ft | 507 kts | 69° |
| 2026-05-06 12:53 | 52.25133 | 2.40978 | 40212 ft | 507 kts | 69° |
| 2026-05-06 12:53 | 52.26419 | 2.46334 | 40447 ft | 508 kts | 69° |
| 2026-05-06 12:53 | 52.27704 | 2.51695 | 40621 ft | 509 kts | 69° |
| 2026-05-06 12:53 | 52.28992 | 2.57084 | 40814 ft | 510 kts | 69° |
| 2026-05-06 12:54 | 52.30269 | 2.62498 | 40929 ft | 511 kts | 71° |
| 2026-05-06 12:54 | 52.32366 | 2.73561 | 40947 ft | 510 kts | 74° |
| 2026-05-06 12:55 | 52.34335 | 2.84697 | 40945 ft | 510 kts | 75° |
| 2026-05-06 12:55 | 52.36273 | 2.95847 | 40945 ft | 510 kts | 75° |
| 2026-05-06 12:56 | 52.38207 | 3.07014 | 40939 ft | 511 kts | 75° |
| 2026-05-06 12:56 | 52.40343 | 3.17985 | 40939 ft | 512 kts | 67° |
| 2026-05-06 12:57 | 52.43229 | 3.28679 | 40943 ft | 512 kts | 66° |
| 2026-05-06 12:57 | 52.45726 | 3.37539 | 40944 ft | 512 kts | 65° |
| 2026-05-06 12:58 | 52.49199 | 3.49839 | 40929 ft | 512 kts | 66° |
| 2026-05-06 12:58 | 52.52173 | 3.60476 | 40932 ft | 513 kts | 66° |
| 2026-05-06 12:59 | 52.55133 | 3.71143 | 40934 ft | 513 kts | 66° |
| 2026-05-06 12:59 | 52.58081 | 3.81824 | 40922 ft | 513 kts | 66° |
| 2026-05-06 13:00 | 52.61016 | 3.92504 | 40925 ft | 513 kts | 66° |
| 2026-05-06 13:00 | 52.63941 | 4.03198 | 40913 ft | 513 kts | 66° |
| 2026-05-06 13:01 | 52.66852 | 4.13885 | 40919 ft | 513 kts | 66° |
| 2026-05-06 13:01 | 52.69748 | 4.24570 | 40919 ft | 513 kts | 66° |
| 2026-05-06 13:02 | 52.72644 | 4.35300 | 40914 ft | 513 kts | 67° |
| 2026-05-06 13:02 | 52.75038 | 4.44212 | 40909 ft | 513 kts | 67° |
| 2026-05-06 13:03 | 52.77853 | 4.54734 | 40917 ft | 513 kts | 67° |
| 2026-05-06 13:03 | 52.80769 | 4.65687 | 40912 ft | 513 kts | 67° |
| 2026-05-06 13:04 | 52.83633 | 4.76492 | 40938 ft | 513 kts | 67° |
| 2026-05-06 13:04 | 52.86477 | 4.87278 | 40938 ft | 513 kts | 67° |
| 2026-05-06 13:05 | 52.89310 | 4.98069 | 40936 ft | 513 kts | 67° |
| 2026-05-06 13:05 | 52.92147 | 5.08927 | 40927 ft | 514 kts | 67° |
| 2026-05-06 13:06 | 52.94977 | 5.19813 | 40926 ft | 514 kts | 68° |
| 2026-05-06 13:06 | 52.97784 | 5.30664 | 40916 ft | 514 kts | 68° |
| 2026-05-06 13:07 | 53.00586 | 5.41545 | 40912 ft | 514 kts | 68° |
| 2026-05-06 13:07 | 53.03368 | 5.52402 | 40914 ft | 514 kts | 68° |
| 2026-05-06 13:08 | 53.06139 | 5.63268 | 40909 ft | 514 kts | 68° |
| 2026-05-06 13:08 | 53.08920 | 5.74228 | 40911 ft | 514 kts | 68° |
| 2026-05-06 13:09 | 53.11694 | 5.85212 | 40919 ft | 515 kts | 68° |
| 2026-05-06 13:09 | 53.14456 | 5.96203 | 40910 ft | 515 kts | 68° |
| 2026-05-06 13:10 | 53.17212 | 6.07228 | 40907 ft | 515 kts | 68° |
| 2026-05-06 13:10 | 53.19958 | 6.18265 | 40907 ft | 515 kts | 68° |
| 2026-05-06 13:11 | 53.22696 | 6.29323 | 40911 ft | 515 kts | 69° |
| 2026-05-06 13:11 | 53.25422 | 6.40391 | 40901 ft | 515 kts | 69° |
| 2026-05-06 13:12 | 53.28120 | 6.51401 | 40906 ft | 515 kts | 69° |
| 2026-05-06 13:12 | 53.30823 | 6.62485 | 40890 ft | 515 kts | 69° |
| 2026-05-06 13:13 | 53.33519 | 6.73600 | 40886 ft | 515 kts | 69° |
| 2026-05-06 13:13 | 53.36068 | 6.84344 | 40894 ft | 515 kts | 73° |
| 2026-05-06 13:13 | 53.36671 | 6.90202 | 40907 ft | 510 kts | 91° |
| 2026-05-06 13:14 | 53.36351 | 6.96132 | 40911 ft | 503 kts | 106° |